createdAt,value
2023-03-29T00:01:10.010Z,102087.31
2023-03-29T00:03:59.766Z,102063.81
2023-03-29T00:06:50.514Z,102056.88
2023-03-29T00:09:38.895Z,102053.53
2023-03-29T00:12:27.044Z,102040.16
2023-03-29T00:15:15.899Z,102037.09
2023-03-29T00:18:03.980Z,102035.97
2023-03-29T00:20:56.383Z,102040.66
2023-03-29T00:23:45.793Z,102032.13
2023-03-29T00:26:33.882Z,102031.47
2023-03-29T00:29:21.899Z,102023.56
2023-03-29T00:32:10.178Z,102019.25
2023-03-29T00:34:58.532Z,102006.50
2023-03-29T00:37:47.129Z,102004.06
2023-03-29T00:40:42.862Z,102008.78
2023-03-29T00:43:31.241Z,102007.81
2023-03-29T00:46:19.394Z,102002.00
2023-03-29T00:49:12.945Z,102002.31
2023-03-29T00:52:01.003Z,101991.34
2023-03-29T00:54:54.669Z,101983.44
2023-03-29T00:57:46.613Z,101992.94
2023-03-29T01:00:39.743Z,101992.94
2023-03-29T01:03:33.019Z,101993.75
2023-03-29T01:06:26.019Z,101984.56
2023-03-29T01:09:17.235Z,101995.19
2023-03-29T01:12:11.481Z,101986.50
2023-03-29T01:15:04.451Z,101987.31
2023-03-29T01:17:53.859Z,101980.34
2023-03-29T01:21:03.126Z,101987.00
2023-03-29T01:24:25.025Z,101978.75
2023-03-29T01:27:18.192Z,101984.38
2023-03-29T01:30:14.165Z,101986.47
2023-03-29T01:33:07.438Z,101988.59
2023-03-29T01:35:58.699Z,101988.75
2023-03-29T01:38:51.641Z,101990.03
2023-03-29T01:41:49.249Z,101998.59
2023-03-29T01:44:48.323Z,102004.25
2023-03-29T01:47:45.599Z,102015.84
2023-03-29T01:50:42.818Z,102015.06
2023-03-29T01:53:36.160Z,102017.16
2023-03-29T01:56:27.982Z,102021.97
2023-03-29T01:59:20.310Z,102021.66
2023-03-29T02:02:12.321Z,102014.25
2023-03-29T02:05:02.357Z,102017.31
2023-03-29T02:07:51.656Z,102025.22
2023-03-29T02:10:40.119Z,102018.75
2023-03-29T02:13:28.259Z,102019.06
2023-03-29T02:16:16.985Z,102014.88
2023-03-29T02:19:07.770Z,102007.78
2023-03-29T02:22:04.622Z,102010.38
2023-03-29T02:24:59.198Z,102009.88
2023-03-29T02:27:47.532Z,102011.47
2023-03-29T02:30:41.955Z,102002.78
2023-03-29T02:33:39.125Z,101996.47
2023-03-29T02:36:32.079Z,101998.56
2023-03-29T02:39:25.356Z,101986.50
2023-03-29T02:42:14.647Z,101983.91
2023-03-29T02:45:04.898Z,101975.81
2023-03-29T02:47:56.667Z,101974.84
2023-03-29T02:50:48.312Z,101979.34
2023-03-29T02:53:42.322Z,101984.84
2023-03-29T02:56:31.706Z,101975.03
2023-03-29T02:59:20.625Z,101976.16
2023-03-29T03:02:08.811Z,101979.06
2023-03-29T03:04:57.557Z,101975.31
2023-03-29T03:07:46.196Z,101970.00
2023-03-29T03:10:34.764Z,101966.59
2023-03-29T03:13:24.258Z,101970.00
2023-03-29T03:16:12.346Z,101958.84
2023-03-29T03:19:01.016Z,101965.44
2023-03-29T03:21:49.331Z,101960.78
2023-03-29T03:24:37.390Z,101959.00
2023-03-29T03:27:25.435Z,101949.47
2023-03-29T03:30:16.072Z,101948.84
2023-03-29T03:33:04.103Z,101948.50
2023-03-29T03:35:52.811Z,101950.28
2023-03-29T03:38:41.298Z,101953.84
2023-03-29T03:41:29.339Z,101959.00
2023-03-29T03:44:17.369Z,101948.03
2023-03-29T03:47:07.887Z,101957.06
2023-03-29T03:49:55.886Z,101960.63
2023-03-29T03:52:44.313Z,101960.94
2023-03-29T03:55:33.400Z,101960.78
2023-03-29T03:58:21.664Z,101953.97
2023-03-29T04:01:09.981Z,101955.47
2023-03-29T04:03:59.423Z,101955.28
2023-03-29T04:06:47.571Z,101951.25
2023-03-29T04:09:36.316Z,101947.53
2023-03-29T04:12:24.333Z,101946.09
2023-03-29T04:15:12.672Z,101946.72
2023-03-29T04:18:01.526Z,101946.88
2023-03-29T04:20:51.507Z,101950.59
2023-03-29T04:23:39.644Z,101947.72
2023-03-29T04:26:27.622Z,101946.88
2023-03-29T04:29:15.895Z,101949.66
2023-03-29T04:32:03.927Z,101951.09
2023-03-29T04:34:52.026Z,101953.03
2023-03-29T04:37:41.926Z,101949.16
2023-03-29T04:40:30.784Z,101954.31
2023-03-29T04:43:18.795Z,101955.91
2023-03-29T04:46:07.871Z,101951.56
2023-03-29T04:48:55.955Z,101951.41
2023-03-29T04:51:44.180Z,101952.53
2023-03-29T04:54:33.591Z,101953.16
2023-03-29T04:57:21.690Z,101948.75
2023-03-29T05:00:15.254Z,101952.78
2023-03-29T05:03:04.465Z,101949.56
2023-03-29T05:05:52.710Z,101958.28
2023-03-29T05:08:41.504Z,101959.91
2023-03-29T05:11:31.693Z,101968.63
2023-03-29T05:14:19.821Z,101985.56
2023-03-29T05:17:08.090Z,101980.25
2023-03-29T05:19:56.235Z,101982.97
2023-03-29T05:22:47.113Z,101980.25
2023-03-29T05:25:35.141Z,101976.34
2023-03-29T05:28:24.687Z,101976.66
2023-03-29T05:31:16.161Z,101983.91
2023-03-29T05:34:07.030Z,101974.72
2023-03-29T05:36:59.187Z,101981.53
2023-03-29T05:39:48.960Z,101993.75
2023-03-29T05:43:20.483Z,101993.25
2023-03-29T05:46:10.420Z,102005.22
2023-03-29T05:48:59.312Z,102015.56
2023-03-29T05:51:47.381Z,102011.47
2023-03-29T05:54:35.359Z,102016.34
2023-03-29T05:57:23.975Z,102014.06
2023-03-29T06:00:20.152Z,102018.09
2023-03-29T06:03:21.555Z,102033.94
2023-03-29T06:06:10.974Z,102031.81
2023-03-29T06:08:59.150Z,102032.78
2023-03-29T06:11:47.699Z,102039.25
2023-03-29T06:14:36.384Z,102036.44
2023-03-29T06:17:24.455Z,102040.13
2023-03-29T06:20:15.008Z,102031.41
2023-03-29T06:23:03.099Z,102042.00
2023-03-29T06:25:51.666Z,102048.41
2023-03-29T06:28:39.714Z,102039.16
2023-03-29T06:31:27.892Z,102044.16
2023-03-29T06:34:16.478Z,102043.81
2023-03-29T06:37:05.917Z,102047.66
2023-03-29T06:39:54.679Z,102045.72
2023-03-29T06:42:42.949Z,102043.25
2023-03-29T06:45:34.439Z,102053.09
2023-03-29T06:49:01.656Z,102061.59
2023-03-29T06:51:49.887Z,102063.91
2023-03-29T06:54:39.305Z,102075.59
2023-03-29T06:57:27.428Z,102081.84
2023-03-29T07:00:18.317Z,102088.56
2023-03-29T07:03:09.846Z,102087.56
2023-03-29T07:06:03.578Z,102096.38
2023-03-29T07:08:52.461Z,102105.56
2023-03-29T07:11:41.907Z,102100.50
2023-03-29T07:14:30.928Z,102106.97
2023-03-29T07:17:19.033Z,102101.44
2023-03-29T07:20:13.601Z,102101.44
2023-03-29T07:23:02.165Z,102095.19
2023-03-29T07:25:50.447Z,102105.66
2023-03-29T07:28:40.246Z,102115.59
2023-03-29T07:31:29.550Z,102121.84
2023-03-29T07:34:17.885Z,102108.56
2023-03-29T07:37:07.084Z,102109.00
2023-03-29T07:39:55.222Z,102111.16
2023-03-29T07:42:43.927Z,102108.31
2023-03-29T07:45:33.367Z,102111.91
2023-03-29T07:48:22.236Z,102110.03
2023-03-29T07:51:10.712Z,102107.16
2023-03-29T07:53:59.786Z,102112.53
2023-03-29T07:56:49.591Z,102107.53
2023-03-29T07:59:37.745Z,102104.94
2023-03-29T08:02:29.137Z,102099.91
2023-03-29T08:05:26.156Z,102093.63
2023-03-29T08:08:22.015Z,102091.94
2023-03-29T08:11:10.140Z,102090.75
2023-03-29T08:13:59.025Z,102084.38
2023-03-29T08:16:47.004Z,102090.34
2023-03-29T08:19:36.428Z,102086.91
2023-03-29T08:22:24.756Z,102089.34
2023-03-29T08:25:12.950Z,102084.16
2023-03-29T08:28:00.986Z,102088.47
2023-03-29T08:30:49.762Z,102076.63
2023-03-29T08:33:38.137Z,102072.91
2023-03-29T08:36:27.632Z,102069.53
2023-03-29T08:39:16.784Z,102068.47
2023-03-29T08:42:23.713Z,102065.56
2023-03-29T08:45:20.938Z,102086.94
2023-03-29T08:48:22.577Z,102099.47
2023-03-29T08:51:21.520Z,102081.84
2023-03-29T08:54:16.783Z,102079.09
2023-03-29T08:57:11.232Z,102079.19
2023-03-29T09:00:02.295Z,102081.31
2023-03-29T09:02:54.354Z,102098.59
2023-03-29T09:05:47.381Z,102078.19
2023-03-29T09:08:41.104Z,102044.31
2023-03-29T09:11:42.652Z,102010.63
2023-03-29T09:14:53.463Z,102011.41
2023-03-29T09:17:53.579Z,102018.13
2023-03-29T09:20:51.244Z,102023.84
2023-03-29T09:24:04.301Z,102031.59
2023-03-29T09:26:58.393Z,102045.19
2023-03-29T09:29:59.384Z,102032.06
2023-03-29T09:32:52.789Z,102030.47
2023-03-29T09:35:46.113Z,102036.50
2023-03-29T09:38:38.299Z,102033.09
2023-03-29T09:41:31.758Z,102032.69
2023-03-29T09:44:31.242Z,102035.75
2023-03-29T09:47:24.815Z,102034.19
2023-03-29T09:50:29.688Z,102027.38
2023-03-29T09:53:20.338Z,102022.69
2023-03-29T09:56:11.580Z,102021.28
2023-03-29T09:58:59.547Z,102032.28
2023-03-29T10:01:49.157Z,102014.53
2023-03-29T10:04:38.530Z,102026.22
2023-03-29T10:07:37.337Z,102011.97
2023-03-29T10:10:29.528Z,102013.78
2023-03-29T10:13:23.604Z,102009.56
2023-03-29T10:16:22.027Z,102008.19
2023-03-29T10:19:21.189Z,102011.19
2023-03-29T10:22:18.806Z,102007.25
2023-03-29T10:25:14.344Z,101989.63
2023-03-29T10:28:11.940Z,101990.03
2023-03-29T10:31:03.744Z,101974.19
2023-03-29T10:33:54.278Z,101974.97
2023-03-29T10:36:48.210Z,101977.34
2023-03-29T10:39:36.630Z,101964.84
2023-03-29T10:42:26.612Z,101974.69
2023-03-29T10:45:21.676Z,101977.94
2023-03-29T10:48:13.710Z,101964.28
2023-03-29T10:51:05.582Z,101967.34
2023-03-29T10:53:55.061Z,101959.41
2023-03-29T10:56:46.631Z,101969.00
2023-03-29T10:59:41.993Z,101962.19
2023-03-29T11:02:49.368Z,101941.78
2023-03-29T11:05:43.898Z,101930.34
2023-03-29T11:08:49.759Z,101925.13
2023-03-29T11:12:14.507Z,101912.72
2023-03-29T11:15:22.585Z,101889.44
2023-03-29T11:18:31.532Z,101879.47
2023-03-29T11:21:31.342Z,101869.25
2023-03-29T11:24:43.385Z,101851.63
2023-03-29T11:27:41.014Z,101854.41
2023-03-29T11:30:34.166Z,101880.03
2023-03-29T11:33:38.183Z,101884.44
2023-03-29T11:36:32.935Z,101889.06
2023-03-29T11:39:30.860Z,101868.25
2023-03-29T11:42:24.332Z,101864.66
2023-03-29T11:45:19.650Z,101868.84
2023-03-29T11:48:16.689Z,101847.44
2023-03-29T11:51:11.262Z,101845.59
2023-03-29T11:54:04.928Z,101843.81
2023-03-29T11:56:58.412Z,101810.97
2023-03-29T11:59:54.259Z,101783.41
2023-03-29T12:02:47.906Z,101763.63
2023-03-29T12:05:42.902Z,101741.97
2023-03-29T12:08:35.912Z,101743.91
2023-03-29T12:11:30.016Z,101734.88
2023-03-29T12:14:25.392Z,101731.06
2023-03-29T12:17:20.744Z,101729.56
2023-03-29T12:20:19.051Z,101727.00
2023-03-29T12:23:08.379Z,101706.41
2023-03-29T12:26:05.352Z,101709.69
2023-03-29T12:29:14.138Z,101697.16
2023-03-29T12:32:28.439Z,101681.19
2023-03-29T12:35:31.964Z,101665.59
2023-03-29T12:38:23.520Z,101655.13
2023-03-29T12:41:19.072Z,101658.47
2023-03-29T12:44:08.979Z,101649.31
2023-03-29T12:47:00.990Z,101648.34
2023-03-29T12:49:55.329Z,101648.53
2023-03-29T12:52:44.699Z,101659.44
2023-03-29T12:55:36.085Z,101658.47
2023-03-29T12:58:43.435Z,101645.97
2023-03-29T13:01:33.121Z,101622.31
2023-03-29T13:04:37.585Z,101613.00
2023-03-29T13:07:44.576Z,101601.47
2023-03-29T13:10:42.947Z,101605.03
2023-03-29T13:13:34.867Z,101596.34
2023-03-29T13:16:31.267Z,101581.72
2023-03-29T13:19:31.053Z,101580.09
2023-03-29T13:22:31.614Z,101571.91
2023-03-29T13:29:53.078Z,101566.84
2023-03-29T13:32:50.279Z,101573.31
2023-03-29T13:35:50.699Z,101564.97
2023-03-29T13:38:47.040Z,101583.44
2023-03-29T13:41:48.823Z,101562.56
2023-03-29T13:44:44.449Z,101564.47
2023-03-29T13:47:48.966Z,101556.53
2023-03-29T13:50:54.462Z,101555.53
2023-03-29T13:53:49.231Z,101550.75
2023-03-29T13:56:45.868Z,101546.63
2023-03-29T13:59:44.025Z,101541.16
2023-03-29T14:02:37.906Z,101537.78
2023-03-29T14:05:32.763Z,101528.97
2023-03-29T14:08:24.961Z,101523.16
2023-03-29T14:11:23.042Z,101495.06
2023-03-29T14:14:12.414Z,101498.50
2023-03-29T14:17:01.808Z,101487.31
2023-03-29T14:19:50.476Z,101481.28
2023-03-29T14:22:42.972Z,101480.66
2023-03-29T14:25:35.179Z,101474.03
2023-03-29T14:28:25.030Z,101467.63
2023-03-29T14:31:19.282Z,101466.03
2023-03-29T14:34:12.786Z,101461.81
2023-03-29T14:37:00.815Z,101455.00
2023-03-29T14:39:50.750Z,101453.97
2023-03-29T14:42:41.852Z,101446.16
2023-03-29T14:45:30.256Z,101454.06
2023-03-29T14:48:19.183Z,101458.44
2023-03-29T14:51:07.678Z,101457.78
2023-03-29T14:53:56.726Z,101454.97
2023-03-29T14:56:48.558Z,101456.91
2023-03-29T14:59:39.689Z,101464.13
2023-03-29T15:02:29.837Z,101451.72
2023-03-29T15:05:27.142Z,101456.72
2023-03-29T15:08:18.983Z,101444.91
2023-03-29T15:11:15.522Z,101439.78
2023-03-29T15:14:07.431Z,101442.53
2023-03-29T15:17:02.721Z,101455.25
2023-03-29T15:19:52.754Z,101469.19
2023-03-29T15:22:52.903Z,101458.88
2023-03-29T15:25:50.475Z,101460.34
2023-03-29T15:28:49.750Z,101453.75
2023-03-29T15:31:41.233Z,101450.69
2023-03-29T15:34:31.289Z,101435.81
2023-03-29T15:37:19.365Z,101426.28
2023-03-29T15:40:09.875Z,101425.59
2023-03-29T15:42:58.505Z,101409.56
2023-03-29T15:45:47.830Z,101416.28
2023-03-29T15:48:37.796Z,101422.31
2023-03-29T15:51:26.051Z,101417.19
2023-03-29T15:54:14.128Z,101406.28
2023-03-29T15:57:06.365Z,101399.47
2023-03-29T15:59:54.518Z,101399.25
2023-03-29T16:02:43.138Z,101397.31
2023-03-29T16:05:34.905Z,101391.66
2023-03-29T16:08:26.422Z,101405.03
2023-03-29T16:11:14.497Z,101405.81
2023-03-29T16:14:02.900Z,101413.09
2023-03-29T16:16:53.666Z,101403.88
2023-03-29T16:19:41.816Z,101400.94
2023-03-29T16:22:32.262Z,101404.25
2023-03-29T16:25:22.749Z,101399.44
2023-03-29T16:28:10.978Z,101401.84
2023-03-29T16:30:59.189Z,101402.06
2023-03-29T16:33:47.407Z,101397.50
2023-03-29T16:36:35.449Z,101408.53
2023-03-29T16:39:24.811Z,101396.16
2023-03-29T16:42:12.883Z,101398.31
2023-03-29T16:45:02.213Z,101396.50
2023-03-29T16:47:51.320Z,101394.69
2023-03-29T16:50:48.606Z,101374.25
2023-03-29T16:53:36.635Z,101384.13
2023-03-29T16:56:27.691Z,101372.91
2023-03-29T16:59:16.693Z,101373.09
2023-03-29T17:02:04.810Z,101374.78
2023-03-29T17:04:53.240Z,101367.63
2023-03-29T17:07:43.104Z,101372.53
2023-03-29T17:10:31.678Z,101370.91
2023-03-29T17:13:22.079Z,101371.03
2023-03-29T17:16:10.263Z,101365.91
2023-03-29T17:19:00.155Z,101376.44
2023-03-29T17:21:48.488Z,101373.28
2023-03-29T17:24:36.546Z,101383.25
2023-03-29T17:27:24.676Z,101384.50
2023-03-29T17:30:14.895Z,101393.34
2023-03-29T17:33:03.321Z,101388.63
2023-03-29T17:35:51.392Z,101388.84
2023-03-29T17:38:39.580Z,101385.53
2023-03-29T17:41:30.864Z,101387.91
2023-03-29T17:44:19.240Z,101392.88
2023-03-29T17:47:09.059Z,101385.00
2023-03-29T17:50:04.324Z,101394.19
2023-03-29T17:52:52.454Z,101394.84
2023-03-29T17:55:40.902Z,101405.94
2023-03-29T17:58:28.911Z,101408.38
2023-03-29T18:01:21.315Z,101408.38
2023-03-29T18:04:11.341Z,101415.56
2023-03-29T18:07:00.159Z,101409.22
2023-03-29T18:09:48.278Z,101414.25
2023-03-29T18:12:36.709Z,101409.69
2023-03-29T18:15:24.840Z,101421.34
2023-03-29T18:18:12.921Z,101416.72
2023-03-29T18:21:02.769Z,101420.88
2023-03-29T18:23:52.846Z,101426.94
2023-03-29T18:26:41.872Z,101426.16
2023-03-29T18:29:29.948Z,101423.53
2023-03-29T18:32:18.199Z,101424.53
2023-03-29T18:35:07.209Z,101416.13
2023-03-29T18:37:56.817Z,101414.75
2023-03-29T18:40:44.926Z,101404.00
2023-03-29T18:43:34.317Z,101416.38
2023-03-29T18:46:22.442Z,101425.97
2023-03-29T18:49:13.110Z,101417.03
2023-03-29T18:52:02.117Z,101416.38
2023-03-29T18:54:51.542Z,101409.69
2023-03-29T18:57:39.587Z,101405.50
2023-03-29T19:00:27.598Z,101390.44
2023-03-29T19:03:15.661Z,101390.44
2023-03-29T19:06:04.707Z,101381.25
2023-03-29T19:08:53.983Z,101375.06
2023-03-29T19:11:43.573Z,101379.88
2023-03-29T19:14:32.208Z,101373.50
2023-03-29T19:17:21.095Z,101362.38
2023-03-29T19:20:10.425Z,101356.91
2023-03-29T19:22:58.462Z,101354.53
2023-03-29T19:25:52.802Z,101347.31
2023-03-29T19:28:42.282Z,101345.81
2023-03-29T19:31:31.812Z,101335.94
2023-03-29T19:34:22.861Z,101335.00
2023-03-29T19:37:10.990Z,101328.25
2023-03-29T19:39:58.954Z,101338.22
2023-03-29T19:42:48.160Z,101327.03
2023-03-29T19:45:38.365Z,101336.16
2023-03-29T19:48:26.629Z,101330.94
2023-03-29T19:51:14.777Z,101334.00
2023-03-29T19:54:02.764Z,101333.41
2023-03-29T19:56:52.557Z,101328.34
2023-03-29T19:59:42.931Z,101313.44
2023-03-29T20:02:32.541Z,101305.00
2023-03-29T20:05:21.613Z,101287.94
2023-03-29T20:08:10.555Z,101265.06
2023-03-29T20:10:59.598Z,101251.69
2023-03-29T20:13:47.885Z,101236.03
2023-03-29T20:16:36.035Z,101226.97
2023-03-29T20:19:26.820Z,101216.16
2023-03-29T20:22:15.044Z,101216.59
2023-03-29T20:25:03.791Z,101221.13
2023-03-29T20:27:53.083Z,101199.56
2023-03-29T20:30:42.541Z,101201.16
2023-03-29T20:33:30.622Z,101193.31
2023-03-29T20:36:23.070Z,101203.75
2023-03-29T20:39:12.006Z,101193.22
2023-03-29T20:42:00.564Z,101192.75
2023-03-29T20:44:50.581Z,101193.09
2023-03-29T20:47:42.405Z,101196.69
2023-03-29T20:50:30.986Z,101191.84
2023-03-29T20:53:21.355Z,101196.69
2023-03-29T20:56:09.552Z,101184.69
2023-03-29T20:58:58.798Z,101175.16
2023-03-29T21:01:47.134Z,101161.13
2023-03-29T21:04:36.074Z,101148.22
2023-03-29T21:07:24.256Z,101134.63
2023-03-29T21:10:13.904Z,101125.78
2023-03-29T21:13:02.586Z,101124.41
2023-03-29T21:15:51.152Z,101119.09
2023-03-29T21:18:40.059Z,101109.94
2023-03-29T21:21:30.113Z,101092.28
2023-03-29T21:24:18.509Z,101079.03
2023-03-29T21:27:08.206Z,101061.81
2023-03-29T21:29:56.228Z,101052.06
2023-03-29T21:32:44.640Z,101050.00
2023-03-29T21:35:34.036Z,101030.72
2023-03-29T21:38:22.172Z,101009.44
2023-03-29T21:41:12.116Z,101014.41
2023-03-29T21:44:01.618Z,101016.78
2023-03-29T21:46:49.732Z,101011.66
2023-03-29T21:49:38.386Z,101014.38
2023-03-29T21:52:26.441Z,101005.28
2023-03-29T21:55:14.593Z,101001.28
2023-03-29T21:58:02.694Z,100985.66
2023-03-29T22:00:52.149Z,100978.34
2023-03-29T22:03:40.311Z,100959.25
2023-03-29T22:06:28.371Z,100956.13
2023-03-29T22:09:16.495Z,100953.34
2023-03-29T22:12:05.526Z,100947.81
2023-03-29T22:14:53.640Z,100940.22
2023-03-29T22:17:43.206Z,100937.38
2023-03-29T22:20:35.741Z,100937.75
2023-03-29T22:23:24.845Z,100937.31
2023-03-29T22:26:15.637Z,100936.78
2023-03-29T22:29:04.325Z,100938.69
2023-03-29T22:31:52.474Z,100937.03
2023-03-29T22:34:41.938Z,100939.56
2023-03-29T22:37:30.576Z,100934.78
2023-03-29T22:40:18.669Z,100936.38
2023-03-29T22:43:06.701Z,100932.78
2023-03-29T22:45:54.840Z,100929.47
2023-03-29T22:48:43.071Z,100934.78
2023-03-29T22:51:32.858Z,100934.34
2023-03-29T22:54:20.955Z,100929.34
2023-03-29T22:57:09.006Z,100927.34
2023-03-29T22:59:57.605Z,100935.03
2023-03-29T23:02:46.031Z,100925.84
2023-03-29T23:05:34.673Z,100915.31
2023-03-29T23:08:24.577Z,100913.66
2023-03-29T23:11:12.804Z,100900.06
2023-03-29T23:14:04.008Z,100910.00
2023-03-29T23:16:52.172Z,100904.09
2023-03-29T23:19:40.290Z,100901.84
2023-03-29T23:22:28.719Z,100891.63
2023-03-29T23:25:21.190Z,100896.44
2023-03-29T23:28:09.222Z,100883.84
2023-03-29T23:31:00.242Z,100887.47
2023-03-29T23:33:49.480Z,100876.47
2023-03-29T23:36:37.765Z,100881.13
2023-03-29T23:39:26.120Z,100868.53
2023-03-29T23:42:15.835Z,100850.72
2023-03-29T23:45:04.151Z,100839.31
2023-03-29T23:47:52.411Z,100829.50
2023-03-29T23:50:40.524Z,100841.75
2023-03-29T23:53:29.729Z,100820.72
2023-03-29T23:56:17.688Z,100808.94
2023-03-29T23:59:07.620Z,100789.84
